Time;durP1;ratioP1;P1;durP2;ratioP2;P2;SDS_P1;SDS_P2;PMS_P1;PMS_P2;Temp;Humidity;BMP_temperature;BMP_pressure;BME280_temperature;BME280_humidity;BME280_pressure;Samples;Min_cycle;Max_cycle;Signal;HPM_P1;HPM_P2
2022/05/09 00:01:29;;;;;;;1.35;0.93;;;;;;;8.63;33.90;101930.53;5084014;28;20384;-68
2022/05/09 00:03:55;;;;;;;3.25;1.40;;;;;;;8.49;34.46;101926.69;5083837;28;20035;-68
2022/05/09 00:06:20;;;;;;;1.30;0.82;;;;;;;8.40;34.64;101922.19;5084105;28;20184;-68
2022/05/09 00:08:46;;;;;;;1.08;0.73;;;;;;;8.39;34.77;101921.28;5083936;28;20043;-69
2022/05/09 00:11:12;;;;;;;1.90;1.10;;;;;;;8.26;34.77;101927.00;5065842;28;20031;-68
2022/05/09 00:13:38;;;;;;;3.47;1.00;;;;;;;8.28;35.01;101923.63;5083764;28;20059;-68
2022/05/09 00:16:04;;;;;;;3.15;1.30;;;;;;;8.11;35.03;101917.13;5083751;28;20016;-68
2022/05/09 00:18:30;;;;;;;4.10;0.93;;;;;;;8.09;35.40;101924.84;5083971;28;20029;-67
2022/05/09 00:20:55;;;;;;;1.00;0.85;;;;;;;8.04;35.75;101918.66;5084061;28;20111;-68
2022/05/09 00:23:20;;;;;;;3.65;1.15;;;;;;;8.01;36.35;101916.88;5083529;28;20055;-68
2022/05/09 00:25:46;;;;;;;1.77;1.00;;;;;;;8.15;36.36;101927.59;5084175;28;20123;-69
2022/05/09 00:28:11;;;;;;;1.23;0.95;;;;;;;7.94;37.04;101913.25;5083819;28;20020;-69
2022/05/09 00:30:37;;;;;;;1.08;0.80;;;;;;;7.92;37.53;101906.28;5084024;28;20051;-69
2022/05/09 00:33:03;;;;;;;3.45;1.27;;;;;;;7.83;37.74;101914.66;5065631;28;20419;-68
2022/05/09 00:35:28;;;;;;;1.70;1.25;;;;;;;7.76;38.23;101920.50;5084151;28;20024;-68
2022/05/09 00:37:53;;;;;;;2.42;1.20;;;;;;;7.73;38.71;101928.19;5083553;28;20041;-68
2022/05/09 00:40:19;;;;;;;1.33;0.90;;;;;;;7.77;39.51;101917.09;5083811;28;20115;-68
2022/05/09 00:42:48;;;;;;;1.77;1.10;;;;;;;7.79;40.55;101920.59;5083826;28;20037;-69
2022/05/09 00:45:14;;;;;;;2.30;1.00;;;;;;;7.77;41.00;101928.31;5083708;28;20336;-68
2022/05/09 00:47:40;;;;;;;1.77;0.73;;;;;;;7.70;42.01;101926.38;5065469;28;20017;-68
2022/05/09 00:50:08;;;;;;;3.45;1.52;;;;;;;7.56;42.23;101919.13;5083727;28;20074;-68
2022/05/09 00:52:50;;;;;;;2.13;1.38;;;;;;;7.61;42.77;101931.28;5083532;28;20035;-68
2022/05/09 00:55:21;;;;;;;3.13;1.40;;;;;;;7.61;43.86;101934.75;5083513;28;20031;-68
2022/05/09 00:58:09;;;;;;;1.98;1.02;;;;;;;7.55;44.13;101929.41;5083547;28;20051;-68
2022/05/09 01:00:35;;;;;;;2.45;1.17;;;;;;;7.45;44.65;101920.50;5083656;28;20051;-68
2022/05/09 01:03:06;;;;;;;1.48;1.08;;;;;;;7.58;45.29;101934.66;5083060;28;20024;-68
2022/05/09 01:05:32;;;;;;;1.73;1.10;;;;;;;7.51;45.48;101925.84;5083385;28;20039;-68
2022/05/09 01:07:58;;;;;;;2.13;0.90;;;;;;;7.56;45.88;101931.16;5083221;28;20040;-68
2022/05/09 01:10:31;;;;;;;1.90;1.00;;;;;;;7.49;46.02;101926.66;5083215;28;20031;-67
2022/05/09 01:13:00;;;;;;;2.35;0.93;;;;;;;7.48;46.68;101935.22;5083197;28;20020;-68
2022/05/09 01:15:26;;;;;;;1.20;0.95;;;;;;;7.51;47.07;101941.34;5083282;28;20029;-64
2022/05/09 01:17:51;;;;;;;3.97;2.72;;;;;;;7.47;47.58;101936.06;5083142;28;20024;-68
2022/05/09 01:20:17;;;;;;;2.22;1.10;;;;;;;7.41;48.00;101926.44;5083232;28;20119;-67
2022/05/09 01:22:43;;;;;;;1.85;1.08;;;;;;;7.39;48.60;101925.50;5083257;28;20024;-68
2022/05/09 01:25:16;;;;;;;1.70;1.10;;;;;;;7.41;48.83;101927.28;5083030;28;20021;-68
2022/05/09 01:27:44;;;;;;;1.58;1.00;;;;;;;7.33;49.19;101926.22;5083290;28;20048;-67
2022/05/09 01:30:38;;;;;;;1.55;1.25;;;;;;;7.48;49.44;101919.72;5083105;28;20054;-68
2022/05/09 01:33:23;;;;;;;1.05;0.90;;;;;;;7.33;49.98;101910.72;5082860;28;20017;-69
2022/05/09 01:35:59;;;;;;;2.65;0.90;;;;;;;7.31;50.52;101910.66;5082472;28;20074;-69
2022/05/09 01:38:36;;;;;;;3.00;1.30;;;;;;;7.21;50.92;101924.13;5083075;28;20090;-67
2022/05/09 01:41:02;;;;;;;4.10;1.40;;;;;;;7.15;51.13;101921.34;5082921;28;20029;-67
2022/05/09 01:43:38;;;;;;;3.15;1.10;;;;;;;7.25;51.78;101917.34;5082809;28;20107;-67
2022/05/09 01:46:10;;;;;;;4.05;1.60;;;;;;;7.13;52.00;101918.72;5082760;28;20124;-68
2022/05/09 01:51:19;;;;;;;2.92;1.25;;;;;;;7.15;52.68;101911.91;5083038;28;20040;-67
2022/05/09 01:53:49;;;;;;;2.92;1.30;;;;;;;7.11;52.87;101906.59;5082779;28;20017;-68
2022/05/09 01:56:15;;;;;;;1.77;1.00;;;;;;;7.14;53.54;101904.97;5082672;28;20021;-67
2022/05/09 01:58:40;;;;;;;2.15;1.33;;;;;;;7.11;54.07;101897.13;5083198;28;20036;-68
2022/05/09 02:01:06;;;;;;;2.83;1.00;;;;;;;6.99;54.65;101889.91;5082985;28;20119;-68
2022/05/09 02:03:32;;;;;;;2.67;1.00;;;;;;;7.02;55.26;101897.75;5082506;28;20080;-68
2022/05/09 02:05:57;;;;;;;2.63;1.33;;;;;;;7.10;55.72;101895.38;5082896;28;20028;-68
2022/05/09 02:08:22;;;;;;;2.42;1.17;;;;;;;6.99;56.28;101889.91;5082774;28;20031;-68
2022/05/09 02:10:48;;;;;;;3.10;1.45;;;;;;;7.04;57.03;101888.34;5064820;28;20029;-68
2022/05/09 02:13:13;;;;;;;4.72;1.50;;;;;;;7.00;57.48;101893.34;5082842;28;20025;-69
2022/05/09 02:15:38;;;;;;;1.77;1.30;;;;;;;7.00;57.89;101890.75;5082562;28;20055;-69
2022/05/09 02:18:03;;;;;;;3.92;1.30;;;;;;;6.99;58.11;101897.66;5082373;28;20086;-69
2022/05/09 02:20:29;;;;;;;2.22;1.17;;;;;;;7.05;58.45;101890.09;5082191;28;20016;-68
2022/05/09 02:22:55;;;;;;;3.53;1.67;;;;;;;7.00;59.15;101893.34;5082354;28;20027;-69
2022/05/09 02:25:29;;;;;;;4.88;1.50;;;;;;;6.98;59.38;101897.59;5082346;28;20029;-69
2022/05/09 02:28:06;;;;;;;3.08;1.15;;;;;;;7.07;59.81;101891.03;5082942;28;20043;-68
2022/05/09 02:30:32;;;;;;;3.00;1.65;;;;;;;7.03;60.31;101890.84;5082230;28;20028;-68
2022/05/09 02:32:58;;;;;;;1.88;1.38;;;;;;;6.90;60.55;101897.38;5081997;28;20032;-68
2022/05/09 02:35:24;;;;;;;3.13;1.40;;;;;;;6.92;60.78;101894.00;5081972;28;20035;-68
2022/05/09 02:37:52;;;;;;;3.83;1.77;;;;;;;7.03;61.17;101896.91;5081933;28;20040;-69
2022/05/09 02:40:18;;;;;;;5.38;1.85;;;;;;;6.98;61.58;101892.44;5082305;28;20105;-68
2022/05/09 02:42:43;;;;;;;2.97;1.80;;;;;;;6.95;61.79;101890.63;5081887;28;20600;-68
2022/05/09 02:45:10;;;;;;;6.70;1.65;;;;;;;6.92;62.13;101899.16;5082444;28;20025;-68
2022/05/09 02:47:36;;;;;;;6.50;2.08;;;;;;;6.94;62.36;101901.78;5085484;28;20167;-68
2022/05/09 02:50:02;;;;;;;4.72;1.42;;;;;;;6.94;62.54;101897.50;5067531;28;20016;-68
2022/05/09 02:52:27;;;;;;;4.63;2.00;;;;;;;6.92;62.79;101894.00;5085668;28;20033;-69
2022/05/09 02:54:52;;;;;;;3.55;1.92;;;;;;;6.97;62.99;101901.00;5085486;28;20031;-68
2022/05/09 02:57:18;;;;;;;8.25;2.03;;;;;;;6.95;63.05;101903.53;5085485;28;20456;-68
2022/05/09 02:59:44;;;;;;;4.95;1.98;;;;;;;6.97;63.21;101896.72;5085542;28;20025;-68
2022/05/09 03:02:09;;;;;;;4.32;2.00;;;;;;;6.97;63.57;101888.97;5085408;28;20024;-68
2022/05/09 03:04:39;;;;;;;4.75;2.08;;;;;;;6.87;63.75;101885.22;5085035;28;20024;-68
2022/05/09 03:07:05;;;;;;;3.95;2.10;;;;;;;6.91;64.01;101893.94;5067263;28;20012;-68
2022/05/09 03:09:31;;;;;;;5.07;2.45;;;;;;;6.86;64.23;101895.50;5085079;28;20024;-67
2022/05/09 03:11:57;;;;;;;3.85;2.05;;;;;;;6.77;64.27;101886.63;5085193;28;20027;-67
2022/05/09 03:14:22;;;;;;;7.70;2.20;;;;;;;6.82;64.58;101895.41;5084938;28;20020;-68
2022/05/09 03:16:48;;;;;;;5.95;2.10;;;;;;;6.84;65.05;101894.59;5085047;28;20565;-69
2022/05/09 03:19:13;;;;;;;5.32;2.05;;;;;;;6.80;65.17;101891.94;5066724;28;20020;-68
2022/05/09 03:21:38;;;;;;;7.10;2.35;;;;;;;6.74;65.61;101901.19;5084992;28;20029;-68
2022/05/09 03:24:04;;;;;;;8.88;2.42;;;;;;;6.65;65.70;101884.56;5066840;28;20024;-68
2022/05/09 03:26:31;;;;;;;5.82;1.98;;;;;;;6.77;65.90;101893.53;5085136;28;20028;-70
2022/05/09 03:28:57;;;;;;;5.40;2.05;;;;;;;6.77;66.17;101886.63;5084938;28;20074;-69
2022/05/09 03:31:22;;;;;;;3.90;2.03;;;;;;;6.71;66.61;101888.19;5084980;28;20028;-69
2022/05/09 03:33:48;;;;;;;4.65;2.22;;;;;;;6.73;66.68;101886.50;5084476;28;20035;-68
2022/05/09 03:36:13;;;;;;;7.28;2.47;;;;;;;6.66;67.03;101875.97;5084614;28;20055;-69
2022/05/09 03:38:39;;;;;;;9.85;2.63;;;;;;;6.71;67.30;101867.53;5084568;28;20024;-68
2022/05/09 03:41:04;;;;;;;5.05;3.00;;;;;;;6.75;67.48;101884.84;5084751;28;20052;-68
2022/05/09 03:43:29;;;;;;;5.88;2.47;;;;;;;6.75;67.54;101884.84;5084477;28;20024;-68
2022/05/09 03:45:57;;;;;;;4.45;1.83;;;;;;;6.84;67.72;101879.97;5084206;28;20028;-68
2022/05/09 03:48:22;;;;;;;5.35;2.17;;;;;;;6.79;67.86;101873.78;5084272;28;20473;-69
2022/05/09 03:50:47;;;;;;;3.60;2.10;;;;;;;6.90;67.99;101879.31;5084451;28;20028;-69
2022/05/09 03:53:13;;;;;;;8.80;2.80;;;;;;;6.91;67.97;101875.88;5084165;28;20297;-68
2022/05/09 03:55:38;;;;;;;7.40;2.20;;;;;;;6.96;68.24;101873.44;5084236;28;20104;-70
2022/05/09 03:58:04;;;;;;;4.43;2.58;;;;;;;6.91;68.47;101881.94;5083297;28;20427;-69
2022/05/09 04:00:33;;;;;;;7.15;2.60;;;;;;;6.93;68.57;101872.50;5084330;28;20024;-68
2022/05/09 04:02:59;;;;;;;6.63;2.47;;;;;;;7.07;68.67;101877.22;5084014;28;20055;-64
2022/05/09 04:05:30;;;;;;;6.68;2.33;;;;;;;7.21;68.54;101884.50;5084106;28;20079;-65
2022/05/09 04:07:57;;;;;;;10.70;3.35;;;;;;;7.35;68.49;101885.78;5067107;28;20020;-65
2022/05/09 04:10:25;;;;;;;6.72;2.20;;;;;;;7.52;68.21;101885.38;5084213;28;20024;-66
2022/05/09 04:12:51;;;;;;;4.85;2.25;;;;;;;7.60;68.10;101880.44;5084082;28;20136;-66
2022/05/09 04:18:01;;;;;;;5.25;2.88;;;;;;;7.70;67.65;101874.66;5084177;28;20038;-67
2022/05/09 04:20:29;;;;;;;10.93;3.17;;;;;;;7.68;68.08;101887.56;5084521;28;20025;-66
2022/05/09 04:22:58;;;;;;;10.80;3.08;;;;;;;7.71;68.53;101867.78;5084192;28;20036;-66
2022/05/09 04:25:23;;;;;;;8.38;3.05;;;;;;;8.08;68.05;101888.59;5084235;28;20178;-66
2022/05/09 04:27:49;;;;;;;5.32;2.72;;;;;;;8.20;67.96;101881.13;5084338;28;20457;-66
2022/05/09 04:30:16;;;;;;;10.50;3.05;;;;;;;8.18;67.89;101873.34;5066030;28;20020;-69
2022/05/09 04:32:41;;;;;;;13.25;2.92;;;;;;;8.33;67.85;101886.63;5083095;28;20035;-70
2022/05/09 04:35:14;;;;;;;6.80;2.47;;;;;;;8.40;67.84;101888.53;5083353;28;20088;-70
2022/05/09 04:37:42;;;;;;;10.10;3.47;;;;;;;8.43;68.13;101891.19;5083089;28;20036;-69
2022/05/09 04:40:08;;;;;;;7.35;2.53;;;;;;;8.77;67.66;101888.56;5064860;28;20490;-69
2022/05/09 04:42:34;;;;;;;7.00;3.08;;;;;;;8.65;68.27;101868.44;5083329;28;20020;-69
2022/05/09 04:44:59;;;;;;;7.00;2.90;;;;;;;8.99;68.73;101889.94;5083154;28;20024;-69
2022/05/09 04:47:26;;;;;;;10.35;2.97;;;;;;;9.17;67.62;101858.34;5082850;28;20032;-70
2022/05/09 04:49:52;;;;;;;10.18;3.70;;;;;;;9.41;67.84;101883.03;5083163;28;20036;-68
2022/05/09 04:52:17;;;;;;;11.95;3.92;;;;;;;9.49;67.70;101895.28;5083089;28;20028;-68
2022/05/09 04:54:42;;;;;;;10.30;2.83;;;;;;;9.58;67.76;101895.47;5082849;28;20040;-68
2022/05/09 04:57:08;;;;;;;7.15;3.83;;;;;;;9.43;68.55;101890.81;5083117;28;20074;-69
2022/05/09 04:59:33;;;;;;;9.15;4.15;;;;;;;9.56;68.08;101886.75;5083010;28;20038;-69
2022/05/09 05:01:58;;;;;;;10.23;4.70;;;;;;;9.63;68.10;101901.59;5082688;28;20084;-70
2022/05/09 05:04:24;;;;;;;9.38;4.22;;;;;;;9.75;67.66;101882.81;5082306;28;20464;-70
2022/05/09 05:06:49;;;;;;;10.40;3.78;;;;;;;9.56;68.54;101884.16;5082951;28;20065;-72
2022/05/09 05:09:14;;;;;;;12.70;4.45;;;;;;;9.49;69.04;101890.09;5082556;28;20025;-70
2022/05/09 05:11:40;;;;;;;15.65;4.95;;;;;;;9.50;69.41;101889.25;5082918;28;20031;-71
2022/05/09 05:14:05;;;;;;;16.25;4.82;;;;;;;9.58;69.75;101910.13;5082563;28;20515;-70
2022/05/09 05:19:14;;;;;;;14.00;5.82;;;;;;;10.14;70.06;101899.06;5082644;28;20040;-70
2022/05/09 05:21:43;;;;;;;10.45;5.03;;;;;;;10.60;69.18;101892.94;5082548;28;20028;-71
2022/05/09 05:24:09;;;;;;;14.60;5.63;;;;;;;10.97;68.29;101900.41;5082590;28;20073;-70
2022/05/09 05:26:35;;;;;;;10.60;4.85;;;;;;;11.26;68.39;101906.84;5082774;28;20035;-70
2022/05/09 05:29:00;;;;;;;11.77;3.92;;;;;;;11.83;68.33;101904.03;5082668;28;20056;-70
2022/05/09 05:31:25;;;;;;;8.35;3.88;;;;;;;12.71;67.97;101904.78;5082575;28;20024;-70
2022/05/09 05:33:51;;;;;;;10.15;4.15;;;;;;;13.71;65.74;101913.09;5082234;28;20111;-68
2022/05/09 05:36:16;;;;;;;9.25;3.75;;;;;;;14.50;63.31;101901.88;5082139;28;20117;-71
2022/05/09 05:38:43;;;;;;;11.75;3.75;;;;;;;15.08;61.60;101905.25;5082460;28;20021;-68
2022/05/09 05:41:08;;;;;;;14.10;4.13;;;;;;;15.73;59.91;101901.47;5082488;28;20025;-70
2022/05/09 05:43:34;;;;;;;13.07;4.07;;;;;;;16.12;57.54;101915.22;5082033;28;20017;-69
2022/05/09 05:45:59;;;;;;;11.90;4.22;;;;;;;16.42;55.49;101906.22;5082121;28;20289;-70
2022/05/09 05:48:25;;;;;;;12.70;3.28;;;;;;;16.62;54.64;101901.69;5082100;28;20036;-70
2022/05/09 05:50:52;;;;;;;11.20;3.28;;;;;;;16.89;53.49;101915.38;5082238;28;20029;-71
2022/05/09 05:53:18;;;;;;;9.10;3.08;;;;;;;17.33;54.01;101913.19;5082343;28;20017;-70
2022/05/09 05:55:44;;;;;;;9.43;3.40;;;;;;;17.75;51.24;101914.38;5082449;28;20024;-70
2022/05/09 05:58:09;;;;;;;11.25;3.05;;;;;;;17.98;49.51;101905.28;5082260;28;20520;-70
2022/05/09 06:00:36;;;;;;;8.98;3.25;;;;;;;18.22;50.24;101909.31;5082333;28;20156;-70
2022/05/09 06:03:01;;;;;;;12.05;3.38;;;;;;;18.83;49.33;101902.97;5082277;28;20021;-71
2022/05/09 06:05:26;;;;;;;8.52;2.67;;;;;;;19.35;47.56;101909.84;5082243;28;20170;-71
2022/05/09 06:07:54;;;;;;;8.50;2.58;;;;;;;19.68;45.42;101907.41;5082400;28;20047;-71
2022/05/09 06:10:19;;;;;;;5.28;1.92;;;;;;;19.89;42.50;101905.16;5082329;28;20070;-70
2022/05/09 06:12:45;;;;;;;9.88;2.80;;;;;;;19.91;41.84;101903.34;5082336;28;20028;-70
2022/05/09 06:15:32;;;;;;;9.55;1.90;;;;;;;19.80;41.85;101903.59;5082036;28;20021;-70
2022/05/09 06:17:59;;;;;;;5.78;2.08;;;;;;;19.53;39.93;101912.09;5081820;28;20075;-69
2022/05/09 06:20:26;;;;;;;4.63;1.60;;;;;;;19.29;39.90;101895.06;5082614;28;20044;-70
2022/05/09 06:22:54;;;;;;;4.75;1.42;;;;;;;19.38;39.50;101907.16;5085856;28;20181;-71
2022/05/09 06:25:21;;;;;;;6.15;1.70;;;;;;;19.37;38.33;101908.94;5085555;28;20391;-70
2022/05/09 06:27:47;;;;;;;6.00;1.67;;;;;;;19.32;38.62;101909.03;5085554;28;20068;-70
2022/05/09 06:30:15;;;;;;;5.30;1.50;;;;;;;19.43;38.13;101916.72;5085669;28;20070;-70
2022/05/09 06:32:40;;;;;;;9.60;1.63;;;;;;;19.57;37.65;101908.50;5085368;28;20046;-70
2022/05/09 06:35:12;;;;;;;4.15;1.30;;;;;;;19.69;36.17;101914.38;5085197;28;20066;-70
2022/05/09 06:37:38;;;;;;;3.63;1.40;;;;;;;19.73;36.34;101921.31;5085293;28;20045;-70
2022/05/09 06:40:06;;;;;;;4.25;1.23;;;;;;;19.76;36.18;101917.75;5050680;28;20035;-70
2022/05/09 06:42:32;;;;;;;3.47;1.15;;;;;;;19.64;35.00;101910.97;5085246;28;20028;-71
2022/05/09 06:44:57;;;;;;;6.20;1.13;;;;;;;19.48;33.98;101921.88;5085194;28;20116;-71
2022/05/09 06:47:22;;;;;;;2.78;1.05;;;;;;;19.28;33.82;101920.53;5085205;28;20457;-72
2022/05/09 06:49:48;;;;;;;2.92;1.10;;;;;;;19.08;35.26;101920.91;5066837;28;20016;-71
2022/05/09 06:52:13;;;;;;;4.22;1.33;;;;;;;19.16;34.69;101924.28;5085273;28;20070;-70
2022/05/09 06:54:39;;;;;;;3.45;1.20;;;;;;;19.46;32.27;101928.94;5085059;28;20060;-71
2022/05/09 06:57:05;;;;;;;4.03;1.13;;;;;;;19.41;33.30;101930.81;5085091;28;20031;-70
2022/05/09 06:59:34;;;;;;;3.55;1.20;;;;;;;19.30;33.67;101928.38;5085061;28;20021;-71
2022/05/09 07:02:00;;;;;;;2.10;0.95;;;;;;;19.29;35.39;101924.03;5084902;28;20051;-71
2022/05/09 07:04:27;;;;;;;5.30;1.88;;;;;;;19.14;36.28;101927.81;5084744;28;20021;-71
2022/05/09 07:06:52;;;;;;;2.55;1.25;;;;;;;19.20;35.86;101925.09;5084802;28;20020;-70
2022/05/09 07:09:17;;;;;;;2.45;1.42;;;;;;;19.47;33.73;101932.44;5084897;28;20053;-71
2022/05/09 07:11:43;;;;;;;2.70;0.95;;;;;;;19.53;33.48;101935.81;5084851;28;20024;-72
2022/05/09 07:14:09;;;;;;;3.63;1.27;;;;;;;19.66;32.97;101927.63;5084625;28;20526;-70
2022/05/09 07:16:35;;;;;;;2.15;0.80;;;;;;;19.97;32.09;101932.19;5084743;28;20158;-71
2022/05/09 07:19:00;;;;;;;2.28;0.95;;;;;;;20.07;32.36;101935.50;5084740;28;20024;-71
2022/05/09 07:21:27;;;;;;;2.58;1.20;;;;;;;20.33;32.52;101927.84;5084776;28;20048;-70
2022/05/09 07:23:52;;;;;;;1.95;0.73;;;;;;;20.28;33.11;101933.25;5084376;28;20099;-69
2022/05/09 07:26:17;;;;;;;3.55;1.00;;;;;;;20.37;32.56;101918.94;5084497;28;20047;-70
2022/05/09 07:28:43;;;;;;;3.03;0.90;;;;;;;20.41;32.82;101925.88;5084407;28;20020;-69
2022/05/09 07:31:10;;;;;;;3.22;1.10;;;;;;;20.38;33.29;101931.25;5084526;28;20032;-71
2022/05/09 07:33:36;;;;;;;1.75;1.00;;;;;;;20.31;32.43;101918.22;5084113;28;20020;-69
2022/05/09 07:36:03;;;;;;;4.07;0.95;;;;;;;20.42;32.21;101932.88;5065620;28;20181;-70
2022/05/09 07:38:28;;;;;;;4.35;1.10;;;;;;;20.50;31.93;101920.38;5084130;28;20086;-70
2022/05/09 07:40:54;;;;;;;3.17;1.10;;;;;;;20.88;32.07;101928.16;5066079;28;20012;-69
2022/05/09 07:43:25;;;;;;;5.50;1.10;;;;;;;21.25;30.99;101926.28;5084158;28;20050;-69
2022/05/09 07:45:52;;;;;;;1.83;0.95;;;;;;;21.29;30.32;101924.41;5084236;28;20031;-69
2022/05/09 07:48:21;;;;;;;5.20;1.33;;;;;;;21.23;30.28;101925.44;5083972;28;20096;-70
2022/05/09 07:50:48;;;;;;;1.25;0.75;;;;;;;21.20;30.75;101933.47;5084099;28;20460;-69
2022/05/09 07:53:18;;;;;;;3.30;1.23;;;;;;;21.25;30.37;101928.03;5084181;28;20417;-70
2022/05/09 07:55:43;;;;;;;3.08;0.73;;;;;;;21.43;29.78;101931.91;5084011;28;20040;-69
2022/05/09 07:58:09;;;;;;;1.73;0.93;;;;;;;21.47;29.10;101925.63;5083856;28;20020;-69
2022/05/09 08:00:39;;;;;;;2.90;1.10;;;;;;;21.47;28.60;101932.69;5083866;28;20406;-70
2022/05/09 08:03:06;;;;;;;1.90;0.80;;;;;;;21.47;27.09;101922.13;5083597;28;20062;-69
2022/05/09 08:05:32;;;;;;;3.67;1.00;;;;;;;21.59;27.49;101920.88;5083733;28;20046;-70
2022/05/09 08:07:57;;;;;;;2.95;1.00;;;;;;;21.87;27.73;101918.25;5083757;28;20024;-70
2022/05/09 08:10:23;;;;;;;3.00;1.10;;;;;;;21.62;28.56;101904.94;5083719;28;20028;-70
2022/05/09 08:12:49;;;;;;;2.83;0.68;;;;;;;21.82;28.87;101921.97;5083734;28;20140;-70
2022/05/09 08:15:16;;;;;;;3.72;0.90;;;;;;;21.86;28.67;101919.19;5083449;28;20083;-69
2022/05/09 08:17:44;;;;;;;3.58;1.00;;;;;;;22.03;28.50;101920.41;5083291;28;20516;-69
2022/05/09 08:20:10;;;;;;;2.08;1.15;;;;;;;22.18;28.21;101913.75;5083759;28;20033;-70
2022/05/09 08:22:36;;;;;;;3.67;0.95;;;;;;;22.34;27.10;101918.50;5083623;28;20074;-69
2022/05/09 08:25:03;;;;;;;2.70;0.93;;;;;;;22.58;26.89;101918.56;5083558;28;20032;-69
2022/05/09 08:27:28;;;;;;;3.03;1.13;;;;;;;22.53;26.04;101914.31;5083532;28;20027;-70
2022/05/09 08:29:58;;;;;;;2.72;1.40;;;;;;;22.47;25.36;101911.91;5083519;28;20024;-70
2022/05/09 08:32:25;;;;;;;3.63;1.10;;;;;;;22.44;24.66;101916.41;5083413;28;20024;-70
2022/05/09 08:34:51;;;;;;;4.25;0.80;;;;;;;22.38;25.32;101921.00;5083105;28;20056;-70
2022/05/09 08:37:18;;;;;;;3.70;1.25;;;;;;;22.11;25.34;101906.94;5083115;28;20033;-70
2022/05/09 08:39:45;;;;;;;2.67;0.80;;;;;;;22.07;24.73;101918.53;5083319;28;20017;-70
2022/05/09 08:42:25;;;;;;;2.08;1.02;;;;;;;22.13;24.73;101915.69;5083212;28;20079;-70
2022/05/09 08:45:00;;;;;;;4.18;1.17;;;;;;;22.24;25.39;101923.25;5082797;28;20111;-69
2022/05/09 08:47:58;;;;;;;4.03;1.10;;;;;;;22.65;25.90;101922.78;5083190;28;20379;-70
2022/05/09 08:50:41;;;;;;;4.55;1.30;;;;;;;22.65;24.74;101918.34;5082429;28;20036;-70
2022/05/09 08:53:10;;;;;;;3.63;1.30;;;;;;;22.62;25.11;101918.44;5065147;28;20031;-70
2022/05/09 08:55:41;;;;;;;2.65;1.20;;;;;;;22.53;24.48;101926.69;5082807;28;20542;-70
2022/05/09 08:58:28;;;;;;;3.38;1.42;;;;;;;22.55;24.85;101922.22;5083270;28;20100;-70
2022/05/09 09:00:55;;;;;;;5.72;1.48;;;;;;;22.85;24.67;101918.53;5083030;28;20036;-70
2022/05/09 09:03:37;;;;;;;5.10;1.58;;;;;;;22.87;24.69;101919.34;5082779;28;20352;-70
2022/05/09 09:06:09;;;;;;;4.10;1.63;;;;;;;22.59;23.98;101923.84;5082758;28;20028;-71
2022/05/09 09:08:47;;;;;;;3.92;1.27;;;;;;;22.36;25.10;101921.97;5082882;28;20042;-69
2022/05/09 09:11:30;;;;;;;5.40;1.60;;;;;;;22.40;27.29;101924.47;5082719;28;20032;-69
2022/05/09 09:14:17;;;;;;;4.78;1.73;;;;;;;22.58;27.76;101923.88;5082670;28;20056;-69
2022/05/09 09:17:10;;;;;;;5.22;1.70;;;;;;;22.80;26.97;101924.00;5064647;28;20431;-70
2022/05/09 09:19:51;;;;;;;3.50;1.35;;;;;;;22.66;26.89;101911.28;5082285;28;20051;-70
2022/05/09 09:22:33;;;;;;;4.47;1.40;;;;;;;22.67;26.49;101910.34;5082610;28;20020;-70
2022/05/09 09:25:13;;;;;;;;;;;;;;;22.94;27.26;101922.66;5083221;28;20245;-70
2022/05/09 09:27:48;;;;;;;3.60;1.23;;;;;;;23.55;26.37;101907.16;5082488;28;19908;-69
2022/05/09 09:30:18;;;;;;;2.03;1.02;;;;;;;24.24;25.58;101908.78;5082547;28;20044;-69
2022/05/09 09:32:50;;;;;;;4.65;0.98;;;;;;;24.70;24.30;101913.00;5082578;28;20142;-68
2022/05/09 09:35:26;;;;;;;5.35;1.90;;;;;;;25.03;25.01;101914.25;5064349;28;20084;-69
2022/05/09 09:38:00;;;;;;;6.35;1.52;;;;;;;24.84;23.34;101920.34;5082380;28;20048;-69
2022/05/09 09:40:26;;;;;;;5.85;1.50;;;;;;;24.28;25.08;101925.44;5082699;28;20070;-69
2022/05/09 09:42:55;;;;;;;8.13;1.63;;;;;;;23.91;27.00;101914.53;5082399;28;20485;-69
2022/05/09 09:45:40;;;;;;;4.72;1.83;;;;;;;23.72;26.88;101917.91;5082412;28;20085;-69
2022/05/09 09:48:17;;;;;;;2.58;1.05;;;;;;;23.61;24.47;101917.50;5082136;28;20051;-69
2022/05/09 09:51:03;;;;;;;5.38;1.45;;;;;;;23.37;26.28;101912.22;5082391;28;20036;-69
2022/05/09 09:53:58;;;;;;;7.20;2.13;;;;;;;23.31;26.54;101913.31;5082621;28;20095;-70
2022/05/09 09:56:24;;;;;;;8.13;1.73;;;;;;;23.01;26.99;101918.84;5084546;28;20024;-69
2022/05/09 09:58:51;;;;;;;4.55;1.58;;;;;;;22.69;26.80;101915.56;5068413;28;20031;-69
2022/05/09 10:01:23;;;;;;;9.50;2.05;;;;;;;22.13;28.04;101905.09;5086344;28;20024;-69
2022/05/09 10:04:09;;;;;;;4.88;1.90;;;;;;;21.89;28.01;101910.28;5067836;28;20039;-68
2022/05/09 10:06:58;;;;;;;5.68;1.60;;;;;;;21.89;29.46;101907.63;5086144;28;20050;-69
2022/05/09 10:09:25;;;;;;;6.10;2.00;;;;;;;21.94;29.40;101897.78;5086052;28;20077;-70
2022/05/09 10:11:50;;;;;;;4.90;1.70;;;;;;;21.96;29.36;101893.31;5086206;28;20043;-70
2022/05/09 10:14:35;;;;;;;3.42;1.50;;;;;;;22.41;28.27;101910.31;5086049;28;20025;-68
2022/05/09 10:17:18;;;;;;;5.45;1.65;;;;;;;22.49;27.57;101896.81;5086039;28;20028;-70
2022/05/09 10:19:44;;;;;;;5.65;2.08;;;;;;;22.52;28.39;101902.00;5085944;28;20450;-70
2022/05/09 10:25:14;;;;;;;9.02;2.20;;;;;;;23.14;28.16;101895.41;5085983;28;20093;-70
2022/05/09 10:27:40;;;;;;;5.32;1.90;;;;;;;23.01;27.19;101892.34;5085872;28;20063;-69
2022/05/09 10:30:14;;;;;;;8.90;2.80;;;;;;;22.31;28.23;101886.88;5085814;28;20017;-70
2022/05/09 10:32:57;;;;;;;6.85;2.15;;;;;;;22.10;29.65;101891.97;5085824;28;20032;-70
2022/05/09 10:35:44;;;;;;;6.70;2.30;;;;;;;22.31;29.97;101878.94;5085645;28;20024;-69
2022/05/09 10:38:15;;;;;;;8.57;2.40;;;;;;;22.33;30.52;101880.63;5084065;28;20037;-69
2022/05/09 10:40:44;;;;;;;5.47;1.90;;;;;;;22.36;29.20;101890.22;5084322;28;20020;-69
2022/05/09 10:43:14;;;;;;;3.33;1.60;;;;;;;22.18;28.33;101882.00;5084220;28;20028;-69
2022/05/09 10:45:47;;;;;;;7.50;2.90;;;;;;;21.99;28.95;101881.75;5084331;28;20020;-70
2022/05/09 10:48:21;;;;;;;4.10;2.25;;;;;;;22.14;28.51;101875.09;5084028;28;20074;-70
2022/05/09 10:50:55;;;;;;;6.57;2.63;;;;;;;22.09;29.92;101879.69;5084210;28;20031;-69
2022/05/09 10:53:39;;;;;;;6.53;1.80;;;;;;;22.01;28.98;101867.56;5084208;28;20040;-70
2022/05/09 10:56:36;;;;;;;6.03;2.35;;;;;;;21.62;29.18;101870.56;5065711;28;20107;-70
2022/05/09 10:59:09;;;;;;;6.40;2.47;;;;;;;21.12;30.88;101870.31;5084058;28;20047;-69
2022/05/09 11:01:34;;;;;;;6.32;2.25;;;;;;;20.58;32.86;101875.31;5084000;28;20082;-70
2022/05/09 11:04:00;;;;;;;5.28;2.65;;;;;;;20.02;33.82;101872.34;5083663;28;20111;-69
2022/05/09 11:06:47;;;;;;;8.27;3.00;;;;;;;19.22;35.42;101867.16;5083574;28;20029;-70
2022/05/09 11:09:15;;;;;;;8.50;2.70;;;;;;;18.70;37.37;101865.50;5084037;28;20040;-69
2022/05/09 11:11:51;;;;;;;7.43;2.17;;;;;;;18.18;36.78;101861.16;5065749;28;20653;-69
2022/05/09 11:14:40;;;;;;;7.63;3.25;;;;;;;17.74;38.70;101866.22;5084026;28;20381;-68
2022/05/09 11:17:15;;;;;;;6.80;2.20;;;;;;;17.34;38.68;101858.03;5065579;28;20052;-69
2022/05/09 11:19:59;;;;;;;10.30;2.40;;;;;;;16.95;38.94;101865.47;5083844;28;20047;-69
2022/05/09 11:22:35;;;;;;;5.72;2.55;;;;;;;16.61;40.23;101864.13;5083757;28;20036;-70
2022/05/09 11:25:33;;;;;;;8.93;3.22;;;;;;;16.37;41.21;101860.00;5083585;28;20056;-70
2022/05/09 11:28:18;;;;;;;9.05;2.58;;;;;;;16.24;40.45;101852.25;5001481;28;20035;-70
2022/05/09 11:30:49;;;;;;;5.75;2.20;;;;;;;16.15;40.92;101850.56;5001579;28;20034;-70
2022/05/09 11:34:02;;;;;;;5.18;1.92;;;;;;;15.96;39.67;101847.19;5001431;28;20042;-69
2022/05/09 11:36:44;;;;;;;3.05;1.50;;;;;;;15.65;38.92;101843.06;4905821;29;1101925;-70
2022/05/09 11:39:18;;;;;;;4.90;1.77;;;;;;;15.44;38.70;101833.59;4944664;29;20433;-70
2022/05/09 11:43:27;;;;;;;8.45;2.40;;;;;;;15.33;41.88;101841.50;4944620;29;20051;-69
2022/05/09 11:44:59;;;;;;;10.20;3.25;;;;;;;15.36;44.42;101833.63;4944011;29;20040;-69
2022/05/09 11:48:00;;;;;;;8.55;2.90;;;;;;;15.43;45.02;101835.34;4928198;29;20023;-70
2022/05/09 11:50:36;;;;;;;12.88;3.60;;;;;;;15.39;45.52;101832.75;4929816;29;20028;-70
2022/05/09 11:53:06;;;;;;;8.88;2.83;;;;;;;15.31;45.33;101833.66;4944118;29;20560;-69